Time;durP1;ratioP1;P1;durP2;ratioP2;P2;SDS_P1;SDS_P2;PMS_P1;PMS_P2;Temp;Humidity;BMP_temperature;BMP_pressure;BME280_temperature;BME280_humidity;BME280_pressure;Samples;Min_cycle;Max_cycle;Signal;HPM_P1;HPM_P2
2023/04/25 00:00:31;;;;;;;;;;;7.90;84.60;;;;;;5073769;28;19909;-33
2023/04/25 00:02:58;;;;;;;;;;;7.90;84.70;;;;;;5073687;28;20422;-30
2023/04/25 00:05:24;;;;;;;;;;;7.80;84.70;;;;;;5073686;28;19909;-32
2023/04/25 00:07:50;;;;;;;;;;;7.70;84.70;;;;;;5073612;28;19916;-29
2023/04/25 00:10:15;;;;;;;;;;;7.70;84.80;;;;;;5073800;28;19909;-29
2023/04/25 00:12:41;;;;;;;;;;;7.60;84.80;;;;;;5073559;28;19963;-31
2023/04/25 00:15:07;;;;;;;;;;;7.60;84.90;;;;;;5073593;28;19919;-29
2023/04/25 00:17:33;;;;;;;;;;;7.60;84.80;;;;;;5073669;28;19920;-31
2023/04/25 00:19:58;;;;;;;;;;;7.60;84.80;;;;;;5073576;28;20062;-29
2023/04/25 00:22:24;;;;;;;;;;;7.60;84.90;;;;;;5073046;28;19921;-31
2023/04/25 00:24:50;;;;;;;;;;;7.60;84.90;;;;;;5073391;28;20310;-30
2023/04/25 00:27:15;;;;;;;;;;;7.50;84.80;;;;;;5071948;28;20261;-29
2023/04/25 00:29:41;;;;;;;;;;;7.60;84.90;;;;;;5073187;28;19962;-29
2023/04/25 00:32:06;;;;;;;;;;;7.60;85.00;;;;;;5071906;28;20015;-29
2023/04/25 00:34:32;;;;;;;;;;;7.50;84.80;;;;;;5073000;28;19908;-30
2023/04/25 00:36:57;;;;;;;;;;;7.50;84.90;;;;;;5073046;28;19947;-29
2023/04/25 00:39:23;;;;;;;;;;;7.50;85.50;;;;;;5073286;28;19932;-32
2023/04/25 00:41:48;;;;;;;;;;;7.50;84.80;;;;;;5072921;28;19966;-29
2023/04/25 00:44:16;;;;;;;;;;;7.50;84.90;;;;;;5073168;28;20352;-29
2023/04/25 00:46:42;;;;;;;;;;;7.50;84.80;;;;;;5073052;28;19948;-29
2023/04/25 00:49:07;;;;;;;;;;;7.50;84.80;;;;;;5072778;28;19952;-29
2023/04/25 00:51:33;;;;;;;;;;;7.50;84.80;;;;;;5072581;28;20273;-29
2023/04/25 00:53:59;;;;;;;;;;;7.50;84.80;;;;;;5072798;28;19916;-29
2023/04/25 00:56:24;;;;;;;;;;;7.60;84.80;;;;;;5072610;28;19998;-30
2023/04/25 00:58:53;;;;;;;;;;;7.60;84.70;;;;;;5072548;28;19913;-29
2023/04/25 01:01:18;;;;;;;;;;;7.60;84.60;;;;;;5072590;28;19909;-31
2023/04/25 01:03:46;;;;;;;;;;;7.60;84.50;;;;;;5072698;28;19912;-29
2023/04/25 01:06:12;;;;;;;;;;;7.60;84.60;;;;;;5072552;28;19915;-29
2023/04/25 01:08:38;;;;;;;;;;;7.60;84.70;;;;;;5072226;28;19908;-30
2023/04/25 01:11:04;;;;;;;;;;;7.50;84.80;;;;;;5072408;28;20288;-30
2023/04/25 01:13:31;;;;;;;;;;;7.50;84.80;;;;;;5072627;28;19912;-31
2023/04/25 01:15:58;;;;;;;;;;;7.40;84.80;;;;;;5072311;28;20045;-28
2023/04/25 01:18:23;;;;;;;;;;;7.50;84.90;;;;;;5070784;28;19908;-31
2023/04/25 01:20:50;;;;;;;;;;;7.40;84.90;;;;;;5072104;28;19936;-29
2023/04/25 01:23:16;;;;;;;;;;;7.40;85.00;;;;;;5072079;28;19912;-31
2023/04/25 01:25:41;;;;;;;;;;;7.40;85.00;;;;;;5072047;28;19966;-30
2023/04/25 01:28:07;;;;;;;;;;;7.40;84.90;;;;;;5072172;28;19909;-28
2023/04/25 01:30:33;;;;;;;;;;;7.50;85.00;;;;;;5072055;28;19915;-31
2023/04/25 01:32:58;;;;;;;;;;;7.50;85.00;;;;;;5072124;28;20290;-29
2023/04/25 01:35:24;;;;;;;;;;;7.50;84.90;;;;;;5071993;28;19909;-30
2023/04/25 01:37:50;;;;;;;;;;;7.50;84.90;;;;;;5072005;28;19909;-29
2023/04/25 01:40:18;;;;;;;;;;;7.60;84.90;;;;;;5071892;28;19915;-29
2023/04/25 01:42:44;;;;;;;;;;;7.60;84.80;;;;;;5072181;28;20136;-29
2023/04/25 01:45:10;;;;;;;;;;;7.60;84.80;;;;;;5070856;28;20410;-30
2023/04/25 01:47:36;;;;;;;;;;;7.60;84.80;;;;;;5071846;28;20291;-31
2023/04/25 01:50:02;;;;;;;;;;;7.60;84.80;;;;;;5071949;28;19908;-29
2023/04/25 01:52:28;;;;;;;;;;;7.60;84.70;;;;;;5071869;28;19909;-29
2023/04/25 01:54:54;;;;;;;;;;;7.60;84.60;;;;;;5071757;28;19915;-29
2023/04/25 01:57:19;;;;;;;;;;;7.60;84.60;;;;;;5071805;28;19925;-32
2023/04/25 01:59:45;;;;;;;;;;;7.60;84.60;;;;;;5071723;28;20003;-29
2023/04/25 02:02:11;;;;;;;;;;;7.60;84.50;;;;;;5073096;28;19912;-28
2023/04/25 02:04:36;;;;;;;;;;;7.60;84.60;;;;;;5075916;28;19909;-29
2023/04/25 02:07:02;;;;;;;;;;;7.60;84.50;;;;;;5076035;28;19931;-28
2023/04/25 02:09:28;;;;;;;;;;;7.60;84.60;;;;;;5075496;28;19915;-28
2023/04/25 02:11:53;;;;;;;;;;;7.50;84.50;;;;;;5075841;28;20264;-30
2023/04/25 02:14:19;;;;;;;;;;;7.50;84.60;;;;;;5076072;28;19921;-30
2023/04/25 02:16:46;;;;;;;;;;;7.50;84.50;;;;;;5075761;28;20310;-29
2023/04/25 02:19:11;;;;;;;;;;;7.50;84.50;;;;;;5075671;28;19951;-29
2023/04/25 02:21:37;;;;;;;;;;;7.50;84.50;;;;;;5075560;28;19973;-29
2023/04/25 02:24:03;;;;;;;;;;;7.50;84.50;;;;;;5075863;28;19913;-29
2023/04/25 02:26:29;;;;;;;;;;;7.50;84.50;;;;;;5074181;28;19955;-29
2023/04/25 02:28:56;;;;;;;;;;;7.50;84.50;;;;;;5075752;28;20405;-29
2023/04/25 02:31:21;;;;;;;;;;;7.50;84.40;;;;;;5075504;28;20303;-30
2023/04/25 02:33:47;;;;;;;;;;;7.50;84.40;;;;;;5075415;28;19908;-29
2023/04/25 02:36:12;;;;;;;;;;;7.50;84.40;;;;;;5075666;28;20445;-29
2023/04/25 02:38:38;;;;;;;;;;;7.50;84.40;;;;;;5075201;28;20001;-29
2023/04/25 02:41:04;;;;;;;;;;;7.50;84.30;;;;;;5075501;28;19950;-34
2023/04/25 02:43:29;;;;;;;;;;;7.50;84.40;;;;;;5074988;28;19924;-28
2023/04/25 02:45:55;;;;;;;;;;;7.50;84.30;;;;;;5075117;28;20403;-30
2023/04/25 02:48:20;;;;;;;;;;;7.50;84.90;;;;;;5075130;28;19909;-29
2023/04/25 02:50:46;;;;;;;;;;;7.40;84.20;;;;;;5074956;28;19909;-29
2023/04/25 02:53:11;;;;;;;;;;;7.40;84.20;;;;;;5075018;28;19908;-30
2023/04/25 02:55:37;;;;;;;;;;;7.30;84.30;;;;;;5074848;28;19909;-29
2023/04/25 02:58:02;;;;;;;;;;;7.30;84.30;;;;;;5075021;28;19908;-30
2023/04/25 03:00:28;;;;;;;;;;;7.20;84.30;;;;;;5074713;28;20000;-29
2023/04/25 03:02:53;;;;;;;;;;;7.10;84.30;;;;;;5074745;28;19913;-28
2023/04/25 03:05:19;;;;;;;;;;;7.10;84.40;;;;;;5074732;28;19919;-29
2023/04/25 03:07:45;;;;;;;;;;;7.10;84.60;;;;;;5075056;28;20003;-31
2023/04/25 03:10:11;;;;;;;;;;;7.00;84.50;;;;;;5074739;28;19908;-30
2023/04/25 03:12:36;;;;;;;;;;;7.00;84.50;;;;;;5074865;28;19909;-29
2023/04/25 03:15:02;;;;;;;;;;;7.00;84.50;;;;;;5074587;28;19961;-32
2023/04/25 03:17:28;;;;;;;;;;;6.90;84.60;;;;;;5074590;28;19909;-28
2023/04/25 03:19:53;;;;;;;;;;;6.90;84.60;;;;;;5074469;28;19913;-29
2023/04/25 03:22:19;;;;;;;;;;;6.90;84.60;;;;;;5074255;28;19925;-28
2023/04/25 03:24:44;;;;;;;;;;;6.90;84.70;;;;;;5074422;28;19909;-29
2023/04/25 03:27:10;;;;;;;;;;;6.80;84.60;;;;;;5074788;28;20017;-34
2023/04/25 03:29:35;;;;;;;;;;;6.80;84.60;;;;;;5074528;28;19944;-29
2023/04/25 03:32:01;;;;;;;;;;;6.80;84.60;;;;;;5074410;28;19909;-31
2023/04/25 03:34:26;;;;;;;;;;;6.80;84.60;;;;;;5074227;28;19936;-33
2023/04/25 03:36:51;;;;;;;;;;;6.80;84.70;;;;;;5074369;28;20000;-29
2023/04/25 03:39:17;;;;;;;;;;;6.80;84.70;;;;;;5074093;28;19908;-29
2023/04/25 03:41:42;;;;;;;;;;;6.80;85.30;;;;;;5074264;28;20003;-29
2023/04/25 03:44:08;;;;;;;;;;;6.70;84.60;;;;;;5073975;28;19967;-28
2023/04/25 03:46:33;;;;;;;;;;;6.70;84.60;;;;;;5074385;28;19908;-29
2023/04/25 03:48:59;;;;;;;;;;;6.80;84.60;;;;;;5074301;28;19955;-28
2023/04/25 03:51:25;;;;;;;;;;;6.80;84.60;;;;;;5074067;28;19908;-36
2023/04/25 03:53:51;;;;;;;;;;;6.80;84.40;;;;;;5073946;28;19950;-29
2023/04/25 03:56:17;;;;;;;;;;;6.80;84.40;;;;;;5074132;28;19908;-29
2023/04/25 03:58:42;;;;;;;;;;;6.70;84.30;;;;;;5073763;28;19909;-28
2023/04/25 04:01:08;;;;;;;;;;;6.70;84.40;;;;;;5073752;28;20276;-28
2023/04/25 04:03:35;;;;;;;;;;;6.70;84.50;;;;;;5073892;28;20009;-33
2023/04/25 04:06:00;;;;;;;;;;;6.60;84.50;;;;;;5073584;28;19908;-29
2023/04/25 04:08:25;;;;;;;;;;;6.60;84.50;;;;;;5073553;28;19996;-31
2023/04/25 04:10:51;;;;;;;;;;;6.60;84.50;;;;;;5073552;28;19908;-31
2023/04/25 04:13:16;;;;;;;;;;;6.50;84.60;;;;;;5073661;28;19909;-33
2023/04/25 04:15:42;;;;;;;;;;;6.50;84.70;;;;;;5073537;28;19966;-28
2023/04/25 04:18:07;;;;;;;;;;;6.50;84.70;;;;;;5073414;28;19912;-29
2023/04/25 04:20:33;;;;;;;;;;;6.50;84.70;;;;;;5073227;28;19917;-29
2023/04/25 04:22:58;;;;;;;;;;;6.50;84.60;;;;;;5073621;28;19920;-29
2023/04/25 04:25:24;;;;;;;;;;;6.50;84.60;;;;;;5073148;28;19913;-31
2023/04/25 04:27:51;;;;;;;;;;;6.50;84.70;;;;;;5073430;28;19912;-28
2023/04/25 04:30:17;;;;;;;;;;;6.40;84.60;;;;;;5073141;28;19908;-31
2023/04/25 04:32:43;;;;;;;;;;;6.40;84.60;;;;;;5073159;28;19999;-29
2023/04/25 04:35:08;;;;;;;;;;;6.40;84.60;;;;;;5073388;28;19909;-29
2023/04/25 04:37:34;;;;;;;;;;;6.40;84.60;;;;;;5073359;28;20065;-29
2023/04/25 04:40:05;;;;;;;;;;;6.40;84.50;;;;;;5073357;28;19908;-29
2023/04/25 04:42:31;;;;;;;;;;;6.50;84.40;;;;;;5072935;28;19913;-31
2023/04/25 04:44:58;;;;;;;;;;;6.40;84.20;;;;;;5072822;28;19915;-28
2023/04/25 04:47:25;;;;;;;;;;;6.50;84.20;;;;;;5072908;28;19991;-33
2023/04/25 04:49:51;;;;;;;;;;;6.50;84.20;;;;;;5073496;28;20334;-28
2023/04/25 04:52:16;;;;;;;;;;;6.50;84.20;;;;;;5072737;28;19982;-29
2023/04/25 04:54:42;;;;;;;;;;;6.50;84.10;;;;;;5071271;28;19959;-29
2023/04/25 04:57:07;;;;;;;;;;;6.60;84.10;;;;;;5072703;28;19909;-28
2023/04/25 04:59:33;;;;;;;;;;;6.60;84.00;;;;;;5072371;28;20002;-29
2023/04/25 05:01:58;;;;;;;;;;;6.60;83.90;;;;;;5072519;28;19908;-28
2023/04/25 05:04:24;;;;;;;;;;;6.70;83.80;;;;;;5071073;28;19916;-28
2023/04/25 05:06:49;;;;;;;;;;;6.70;83.70;;;;;;5072841;28;19913;-29
2023/04/25 05:09:15;;;;;;;;;;;6.60;83.70;;;;;;5072794;28;19991;-35
2023/04/25 05:11:40;;;;;;;;;;;6.60;83.70;;;;;;5072545;28;20372;-27
2023/04/25 05:14:06;;;;;;;;;;;6.60;84.30;;;;;;5071130;28;20379;-28
2023/04/25 05:16:31;;;;;;;;;;;6.60;83.80;;;;;;5072412;28;19908;-29
2023/04/25 05:18:56;;;;;;;;;;;6.60;83.80;;;;;;5072710;28;19931;-31
2023/04/25 05:21:22;;;;;;;;;;;6.60;83.80;;;;;;5072058;28;19978;-30
2023/04/25 05:23:47;;;;;;;;;;;6.60;84.00;;;;;;5072545;28;20342;-29
2023/04/25 05:26:13;;;;;;;;;;;6.60;83.90;;;;;;5072325;28;19908;-29
2023/04/25 05:28:42;;;;;;;;;;;6.70;83.90;;;;;;5072476;28;19938;-29
2023/04/25 05:31:09;;;;;;;;;;;6.70;83.80;;;;;;5072145;28;19909;-33
2023/04/25 05:33:35;;;;;;;;;;;6.80;83.80;;;;;;5072149;28;19908;-31
2023/04/25 05:36:00;;;;;;;;;;;6.80;83.60;;;;;;5071664;28;19958;-28
2023/04/25 05:38:26;;;;;;;;;;;6.80;83.70;;;;;;5071688;28;19940;-31
2023/04/25 05:40:51;;;;;;;;;;;6.90;83.70;;;;;;5072248;28;19912;-29
2023/04/25 05:43:17;;;;;;;;;;;6.90;83.70;;;;;;5072215;28;19912;-29
2023/04/25 05:45:42;;;;;;;;;;;6.90;83.70;;;;;;5071968;28;19908;-28
2023/04/25 05:48:08;;;;;;;;;;;6.90;83.70;;;;;;5072020;28;19912;-36
2023/04/25 05:50:33;;;;;;;;;;;6.90;83.60;;;;;;5072193;28;19908;-29
2023/04/25 05:52:59;;;;;;;;;;;6.90;83.60;;;;;;5072092;28;20011;-29
2023/04/25 05:55:24;;;;;;;;;;;6.90;83.50;;;;;;5072015;28;20424;-40
2023/04/25 05:57:50;;;;;;;;;;;6.90;83.50;;;;;;5071813;28;20003;-30
2023/04/25 06:00:15;;;;;;;;;;;6.90;83.40;;;;;;5071947;28;20007;-29
2023/04/25 06:02:41;;;;;;;;;;;6.90;83.30;;;;;;5071767;28;19919;-29
2023/04/25 06:05:07;;;;;;;;;;;6.90;83.40;;;;;;5071695;28;19951;-29
2023/04/25 06:07:33;;;;;;;;;;;7.00;83.30;;;;;;5071735;28;19916;-28
2023/04/25 06:09:59;;;;;;;;;;;7.10;83.20;;;;;;5071957;28;19916;-29
2023/04/25 06:12:25;;;;;;;;;;;7.10;83.00;;;;;;5071853;28;20269;-30
2023/04/25 06:14:50;;;;;;;;;;;7.20;83.10;;;;;;5071793;28;19934;-30
2023/04/25 06:17:16;;;;;;;;;;;7.20;83.00;;;;;;5071677;28;20399;-29
2023/04/25 06:19:41;;;;;;;;;;;7.20;82.90;;;;;;5071775;28;19962;-28
2023/04/25 06:22:07;;;;;;;;;;;7.30;82.90;;;;;;5071443;28;19920;-29
2023/04/25 06:24:32;;;;;;;;;;;7.30;82.80;;;;;;5071588;28;20314;-30
2023/04/25 06:26:58;;;;;;;;;;;7.40;82.70;;;;;;5071568;28;19991;-31
2023/04/25 06:29:24;;;;;;;;;;;7.40;82.70;;;;;;5071839;28;19908;-35
2023/04/25 06:31:49;;;;;;;;;;;7.50;82.70;;;;;;5071424;28;19999;-29
2023/04/25 06:34:15;;;;;;;;;;;7.60;82.60;;;;;;5071347;28;19908;-30
2023/04/25 06:36:41;;;;;;;;;;;7.70;83.10;;;;;;5071580;28;20348;-29
2023/04/25 06:39:06;;;;;;;;;;;7.80;82.40;;;;;;5071444;28;19908;-30
2023/04/25 06:41:32;;;;;;;;;;;7.80;82.20;;;;;;5070099;28;19908;-29
2023/04/25 06:43:57;;;;;;;;;;;7.90;82.20;;;;;;5071390;28;19913;-30
2023/04/25 06:46:23;;;;;;;;;;;8.00;82.00;;;;;;5070014;28;19909;-32
2023/04/25 06:48:48;;;;;;;;;;;8.10;81.90;;;;;;5074123;28;19920;-29
2023/04/25 06:51:14;;;;;;;;;;;8.20;81.80;;;;;;5075019;28;20128;-29
2023/04/25 06:53:40;;;;;;;;;;;8.20;81.40;;;;;;5075003;28;19912;-33
2023/04/25 06:56:05;;;;;;;;;;;8.30;81.40;;;;;;5074906;28;20006;-30
2023/04/25 06:58:31;;;;;;;;;;;8.30;81.30;;;;;;5074658;28;20086;-29
2023/04/25 07:00:56;;;;;;;;;;;8.40;81.30;;;;;;5073998;28;19995;-33
2023/04/25 07:03:22;;;;;;;;;;;8.50;81.20;;;;;;5071985;28;19916;-34
2023/04/25 07:05:47;;;;;;;;;;;8.50;81.10;;;;;;5074409;28;19908;-30
2023/04/25 07:08:13;;;;;;;;;;;8.50;80.90;;;;;;5074758;28;19909;-33
2023/04/25 07:10:38;;;;;;;;;;;8.50;81.00;;;;;;5074562;28;19909;-30
2023/04/25 07:13:04;;;;;;;;;;;8.40;80.90;;;;;;5074785;28;19909;-32
2023/04/25 07:15:29;;;;;;;;;;;8.30;81.10;;;;;;5074748;28;19912;-30
2023/04/25 07:17:55;;;;;;;;;;;8.20;81.10;;;;;;5074866;28;19909;-30
2023/04/25 07:20:20;;;;;;;;;;;8.30;81.30;;;;;;5074521;28;19959;-30
2023/04/25 07:22:46;;;;;;;;;;;8.30;81.30;;;;;;5074516;28;19960;-30
2023/04/25 07:25:11;;;;;;;;;;;8.40;81.20;;;;;;5074518;28;19916;-31
2023/04/25 07:27:37;;;;;;;;;;;8.50;81.10;;;;;;5074478;28;20106;-30
2023/04/25 07:30:03;;;;;;;;;;;8.60;80.90;;;;;;5074377;28;19916;-29
2023/04/25 07:32:29;;;;;;;;;;;8.90;80.70;;;;;;5074281;28;20399;-30
2023/04/25 07:34:55;;;;;;;;;;;9.10;80.30;;;;;;5074347;28;19999;-28
2023/04/25 07:37:20;;;;;;;;;;;9.30;80.00;;;;;;5074357;28;19908;-30
2023/04/25 07:39:46;;;;;;;;;;;9.40;79.60;;;;;;5074119;28;20026;-32
2023/04/25 07:42:12;;;;;;;;;;;9.50;79.00;;;;;;5074142;28;19991;-35
2023/04/25 07:44:42;;;;;;;;;;;9.60;79.10;;;;;;5074180;28;19908;-32
2023/04/25 07:47:07;;;;;;;;;;;9.60;77.20;;;;;;5074247;28;19920;-30
2023/04/25 07:49:34;;;;;;;;;;;9.60;76.30;;;;;;5074458;28;19909;-29
2023/04/25 07:52:00;;;;;;;;;;;9.50;75.40;;;;;;5074078;28;19920;-29
2023/04/25 07:54:26;;;;;;;;;;;9.40;73.70;;;;;;5074078;28;19908;-35
2023/04/25 07:56:51;;;;;;;;;;;9.30;75.80;;;;;;5074311;28;20272;-28
2023/04/25 07:59:17;;;;;;;;;;;9.30;75.40;;;;;;5072974;28;19908;-31
2023/04/25 08:01:42;;;;;;;;;;;9.30;74.80;;;;;;5073696;28;20352;-30
2023/04/25 08:04:07;;;;;;;;;;;9.30;74.60;;;;;;5073797;28;20284;-30
2023/04/25 08:06:33;;;;;;;;;;;9.30;75.50;;;;;;5073622;28;19915;-41
2023/04/25 08:08:58;;;;;;;;;;;9.30;75.20;;;;;;5073581;28;19909;-28
2023/04/25 08:11:25;;;;;;;;;;;9.30;75.00;;;;;;5073610;28;19909;-30
2023/04/25 08:13:50;;;;;;;;;;;9.20;75.00;;;;;;5073336;28;20292;-30
2023/04/25 08:16:15;;;;;;;;;;;9.20;75.60;;;;;;5073382;28;19974;-29
2023/04/25 08:18:41;;;;;;;;;;;9.30;73.50;;;;;;5073356;28;19952;-31
2023/04/25 08:21:08;;;;;;;;;;;9.30;74.80;;;;;;5073271;28;19927;-32
2023/04/25 08:23:34;;;;;;;;;;;9.40;74.60;;;;;;5073188;28;19920;-30
2023/04/25 08:25:59;;;;;;;;;;;9.40;72.40;;;;;;5071972;28;19913;-27
2023/04/25 08:28:25;;;;;;;;;;;9.50;70.90;;;;;;5073236;28;19998;-28
2023/04/25 08:30:51;;;;;;;;;;;9.50;71.90;;;;;;5073276;28;19978;-29
2023/04/25 08:33:16;;;;;;;;;;;9.70;71.60;;;;;;5073153;28;20283;-29
2023/04/25 08:35:42;;;;;;;;;;;9.90;70.10;;;;;;5073363;28;19919;-28
2023/04/25 08:38:07;;;;;;;;;;;10.10;70.80;;;;;;5073074;28;20011;-28
2023/04/25 08:40:36;;;;;;;;;;;10.20;67.80;;;;;;5072962;28;19966;-28
2023/04/25 08:43:03;;;;;;;;;;;10.20;67.60;;;;;;5072935;28;20288;-28
2023/04/25 08:45:31;;;;;;;;;;;10.20;67.30;;;;;;5072869;28;19909;-29
2023/04/25 08:47:56;;;;;;;;;;;10.10;65.40;;;;;;5072868;28;19908;-28
2023/04/25 08:50:22;;;;;;;;;;;10.00;65.10;;;;;;5072693;28;20376;-28
2023/04/25 08:52:50;;;;;;;;;;;9.90;67.00;;;;;;5072721;28;20422;-28
2023/04/25 08:55:15;;;;;;;;;;;9.90;68.20;;;;;;5072772;28;19908;-28
2023/04/25 08:57:42;;;;;;;;;;;9.90;65.40;;;;;;5072560;28;20421;-32
2023/04/25 09:00:09;;;;;;;;;;;9.90;66.00;;;;;;5072592;28;20147;-33
2023/04/25 09:02:35;;;;;;;;;;;9.90;67.20;;;;;;5070961;28;19956;-28
2023/04/25 09:05:02;;;;;;;;;;;9.90;67.40;;;;;;5072457;28;20364;-28
2023/04/25 09:07:28;;;;;;;;;;;9.90;68.40;;;;;;5072497;28;19908;-30
2023/04/25 09:09:54;;;;;;;;;;;10.00;68.90;;;;;;5072350;28;19916;-31
2023/04/25 09:12:19;;;;;;;;;;;10.00;67.90;;;;;;5072087;28;19937;-30
2023/04/25 09:15:00;;;;;;;;;;;10.00;69.10;;;;;;5072404;28;19909;-31
2023/04/25 09:17:26;;;;;;;;;;;10.00;68.60;;;;;;5072310;28;20003;-30
2023/04/25 09:19:52;;;;;;;;;;;10.00;67.70;;;;;;5070805;28;20005;-29
2023/04/25 09:22:18;;;;;;;;;;;9.90;67.90;;;;;;5072026;28;19924;-33
2023/04/25 09:24:45;;;;;;;;;;;9.90;67.20;;;;;;5072413;28;19915;-30
2023/04/25 09:27:13;;;;;;;;;;;9.90;66.80;;;;;;5072201;28;19915;-29
2023/04/25 09:29:40;;;;;;;;;;;9.80;67.00;;;;;;5072036;28;19939;-35
2023/04/25 09:32:19;;;;;;;;;;;9.90;66.60;;;;;;5072107;28;19947;-30
2023/04/25 09:34:48;;;;;;;;;;;9.80;66.60;;;;;;5071962;28;19916;-29
2023/04/25 09:37:17;;;;;;;;;;;9.80;66.80;;;;;;5072022;28;19908;-29
2023/04/25 09:39:44;;;;;;;;;;;9.80;66.60;;;;;;5072011;28;20079;-29
2023/04/25 09:42:09;;;;;;;;;;;9.70;64.90;;;;;;5070493;28;20296;-36
2023/04/25 09:44:35;;;;;;;;;;;9.60;65.20;;;;;;5071777;28;19908;-28
2023/04/25 09:47:02;;;;;;;;;;;9.60;65.20;;;;;;5071722;28;19909;-30
2023/04/25 09:49:28;;;;;;;;;;;9.60;64.90;;;;;;5071796;28;20288;-29
2023/04/25 09:51:54;;;;;;;;;;;9.70;65.10;;;;;;5071884;28;19908;-30
2023/04/25 09:54:20;;;;;;;;;;;9.80;65.30;;;;;;5071551;28;19915;-28
2023/04/25 09:56:47;;;;;;;;;;;10.00;62.70;;;;;;5071567;28;20282;-28
2023/04/25 09:59:14;;;;;;;;;;;10.10;64.40;;;;;;5071498;28;19908;-28
2023/04/25 10:01:40;;;;;;;;;;;10.20;65.00;;;;;;5071632;28;19908;-28
2023/04/25 10:04:10;;;;;;;;;;;10.40;64.50;;;;;;5071499;28;19917;-29
2023/04/25 10:06:37;;;;;;;;;;;10.50;60.20;;;;;;5071587;28;19993;-28
2023/04/25 10:09:03;;;;;;;;;;;10.60;61.60;;;;;;5070169;28;20368;-28
2023/04/25 10:11:30;;;;;;;;;;;10.80;58.80;;;;;;5071533;28;19908;-33
2023/04/25 10:13:55;;;;;;;;;;;10.90;60.50;;;;;;5071550;28;19909;-29
2023/04/25 10:16:21;;;;;;;;;;;10.90;59.20;;;;;;5071448;28;19909;-28
2023/04/25 10:18:47;;;;;;;;;;;10.90;59.40;;;;;;5070146;28;20003;-30
2023/04/25 10:21:12;;;;;;;;;;;10.90;58.50;;;;;;5071353;28;20336;-28
2023/04/25 10:23:38;;;;;;;;;;;10.80;58.00;;;;;;5073585;28;19919;-29
2023/04/25 10:26:03;;;;;;;;;;;10.80;58.50;;;;;;5075433;28;20011;-32
2023/04/25 10:28:29;;;;;;;;;;;10.70;57.10;;;;;;5075377;28;20011;-29
2023/04/25 10:30:58;;;;;;;;;;;10.70;57.80;;;;;;5075472;28;20007;-31
2023/04/25 10:33:36;;;;;;;;;;;10.80;57.10;;;;;;5075283;28;19909;-38
2023/04/25 10:36:28;;;;;;;;;;;10.70;58.00;;;;;;5075518;28;19938;-30
2023/04/25 10:38:54;;;;;;;;;;;10.70;58.60;;;;;;5075053;28;19971;-30
2023/04/25 10:41:21;;;;;;;;;;;10.70;58.00;;;;;;5075173;28;19947;-30
2023/04/25 10:43:47;;;;;;;;;;;10.50;59.30;;;;;;5075040;28;20003;-31
2023/04/25 10:46:21;;;;;;;;;;;10.40;60.40;;;;;;5075198;28;20408;-32
2023/04/25 10:48:48;;;;;;;;;;;10.30;61.90;;;;;;5074912;28;20268;-34
2023/04/25 10:51:18;;;;;;;;;;;10.20;63.50;;;;;;5073488;28;19963;-27
2023/04/25 10:53:44;;;;;;;;;;;10.10;63.90;;;;;;5074931;28;19908;-31
2023/04/25 10:56:11;;;;;;;;;;;10.10;64.50;;;;;;5074782;28;19915;-28
2023/04/25 10:58:41;;;;;;;;;;;10.10;64.30;;;;;;5074534;28;19916;-28
2023/04/25 11:01:06;;;;;;;;;;;10.10;64.30;;;;;;5074597;28;19957;-34
2023/04/25 11:03:32;;;;;;;;;;;10.20;64.80;;;;;;5074973;28;19999;-28
2023/04/25 11:05:58;;;;;;;;;;;10.20;64.50;;;;;;5074405;28;20006;-28
2023/04/25 11:08:36;;;;;;;;;;;10.30;63.90;;;;;;5074358;28;20329;-37
2023/04/25 11:11:02;;;;;;;;;;;10.30;64.50;;;;;;5072813;28;19943;-38
2023/04/25 11:13:30;;;;;;;;;;;10.30;63.30;;;;;;5074429;28;20035;-30
2023/04/25 11:15:55;;;;;;;;;;;10.30;63.60;;;;;;5074370;28;19909;-30
2023/04/25 11:18:21;;;;;;;;;;;10.30;64.10;;;;;;5074572;28;20286;-31
2023/04/25 11:20:48;;;;;;;;;;;10.30;63.80;;;;;;5074090;28;19916;-32
2023/04/25 11:23:15;;;;;;;;;;;10.50;63.40;;;;;;5074395;28;19912;-29
2023/04/25 11:25:40;;;;;;;;;;;10.70;63.10;;;;;;5074117;28;19924;-31
2023/04/25 11:28:06;;;;;;;;;;;10.70;62.80;;;;;;5074160;28;20032;-31
2023/04/25 11:30:31;;;;;;;;;;;10.70;62.70;;;;;;5074031;28;19931;-29
2023/04/25 11:32:57;;;;;;;;;;;10.70;61.80;;;;;;5074113;28;20264;-31
2023/04/25 11:35:25;;;;;;;;;;;10.70;60.80;;;;;;5071424;28;20038;-28
2023/04/25 11:37:50;;;;;;;;;;;10.90;61.20;;;;;;5073975;28;20292;-39
2023/04/25 11:40:16;;;;;;;;;;;11.00;58.80;;;;;;5074074;28;20283;-33
2023/04/25 11:42:46;;;;;;;;;;;11.10;54.20;;;;;;5073909;28;19916;-30
2023/04/25 11:45:12;;;;;;;;;;;11.20;54.00;;;;;;5074083;28;19908;-34
2023/04/25 11:47:37;;;;;;;;;;;11.20;52.70;;;;;;5074020;28;20446;-30
2023/04/25 11:50:04;;;;;;;;;;;11.30;54.10;;;;;;5074001;28;19909;-31
2023/04/25 11:52:39;;;;;;;;;;;11.40;53.70;;;;;;5074064;28;20292;-29
2023/04/25 11:55:06;;;;;;;;;;;11.40;53.50;;;;;;5073705;28;19978;-29
2023/04/25 11:57:32;;;;;;;;;;;11.40;54.90;;;;;;5073672;28;19996;-34
2023/04/25 12:00:05;;;;;;;;;;;11.50;55.80;;;;;;5073642;28;20380;-33
2023/04/25 12:02:31;;;;;;;;;;;11.70;55.30;;;;;;5073185;28;19913;-40
2023/04/25 12:04:59;;;;;;;;;;;11.80;53.40;;;;;;5073157;28;19908;-39
2023/04/25 12:07:28;;;;;;;;;;;11.90;53.00;;;;;;5073092;28;19912;-43
2023/04/25 12:09:54;;;;;;;;;;;12.00;52.00;;;;;;5072867;28;19916;-50
2023/04/25 12:12:19;;;;;;;;;;;12.00;52.80;;;;;;5071319;28;19912;-55
2023/04/25 12:14:47;;;;;;;;;;;11.90;53.20;;;;;;5072852;28;19909;-48
2023/04/25 12:17:13;;;;;;;;;;;11.70;54.20;;;;;;5072929;28;20008;-49
2023/04/25 12:19:43;;;;;;;;;;;11.40;55.50;;;;;;5071540;28;19908;-37
2023/04/25 12:22:19;;;;;;;;;;;11.20;56.40;;;;;;5072544;28;19947;-39
2023/04/25 12:24:45;;;;;;;;;;;10.90;57.20;;;;;;5073371;28;20302;-29
2023/04/25 12:27:15;;;;;;;;;;;10.70;58.30;;;;;;5073206;28;19908;-50
2023/04/25 12:29:49;;;;;;;;;;;10.60;58.90;;;;;;5072731;28;20053;-33
2023/04/25 12:32:15;;;;;;;;;;;10.50;59.60;;;;;;5073214;28;20276;-40
2023/04/25 12:34:41;;;;;;;;;;;10.60;59.90;;;;;;5072650;28;19908;-34
2023/04/25 12:37:06;;;;;;;;;;;10.60;60.00;;;;;;5072911;28;19948;-33
2023/04/25 12:39:32;;;;;;;;;;;10.70;59.30;;;;;;5072560;28;19909;-29
2023/04/25 12:41:58;;;;;;;;;;;10.70;59.40;;;;;;5072778;28;20367;-30
2023/04/25 12:44:24;;;;;;;;;;;10.70;59.20;;;;;;5071183;28;20498;-30
2023/04/25 12:46:49;;;;;;;;;;;10.80;59.60;;;;;;5072208;28;19909;-29
2023/04/25 12:49:15;;;;;;;;;;;10.90;59.50;;;;;;5072806;28;20368;-33
2023/04/25 12:51:41;;;;;;;;;;;10.90;59.50;;;;;;5072734;28;19909;-32
2023/04/25 12:54:08;;;;;;;;;;;10.90;59.50;;;;;;5072549;28;19908;-34
2023/04/25 12:56:34;;;;;;;;;;;11.00;59.30;;;;;;5072292;28;19916;-29
2023/04/25 12:58:59;;;;;;;;;;;11.10;59.60;;;;;;5072437;28;19912;-35
2023/04/25 13:01:26;;;;;;;;;;;11.20;59.50;;;;;;5072334;28;20406;-30
2023/04/25 13:03:51;;;;;;;;;;;11.40;58.70;;;;;;5072291;28;20394;-31
2023/04/25 13:06:18;;;;;;;;;;;11.40;58.50;;;;;;5072356;28;19908;-31
2023/04/25 13:08:43;;;;;;;;;;;11.50;58.00;;;;;;5072119;28;20375;-30
2023/04/25 13:11:09;;;;;;;;;;;11.70;58.20;;;;;;5072238;28;19912;-30
2023/04/25 13:13:35;;;;;;;;;;;11.90;58.40;;;;;;5072035;28;19995;-28
2023/04/25 13:16:04;;;;;;;;;;;12.20;58.10;;;;;;5072324;28;20380;-32
2023/04/25 13:18:30;;;;;;;;;;;12.40;57.30;;;;;;5072073;28;19912;-30
2023/04/25 13:20:56;;;;;;;;;;;12.50;56.40;;;;;;5071942;28;20011;-36
2023/04/25 13:23:22;;;;;;;;;;;12.50;55.40;;;;;;5071934;28;20019;-31
2023/04/25 13:25:47;;;;;;;;;;;12.30;55.10;;;;;;5072181;28;19919;-35
2023/04/25 13:28:15;;;;;;;;;;;12.00;55.30;;;;;;5071534;28;20337;-30
2023/04/25 13:30:40;;;;;;;;;;;11.90;53.70;;;;;;5071749;28;19944;-30
2023/04/25 13:33:06;;;;;;;;;;;11.80;53.20;;;;;;5071905;28;20007;-32
2023/04/25 13:35:32;;;;;;;;;;;11.70;54.70;;;;;;5071682;28;20283;-32
2023/04/25 13:37:58;;;;;;;;;;;11.70;54.90;;;;;;5071960;28;20261;-30
2023/04/25 13:40:23;;;;;;;;;;;11.70;53.90;;;;;;5072064;28;19916;-29
2023/04/25 13:42:49;;;;;;;;;;;11.70;52.50;;;;;;5071712;28;20321;-30
2023/04/25 13:45:14;;;;;;;;;;;11.60;53.00;;;;;;5071845;28;19908;-30
2023/04/25 13:47:40;;;;;;;;;;;11.50;53.40;;;;;;5071666;28;20380;-30
2023/04/25 13:50:07;;;;;;;;;;;11.60;54.50;;;;;;5070328;28;19908;-29
2023/04/25 13:52:32;;;;;;;;;;;11.80;54.50;;;;;;5071550;28;19954;-31
2023/04/25 13:54:58;;;;;;;;;;;12.20;54.90;;;;;;5071766;28;20010;-39
2023/04/25 13:57:23;;;;;;;;;;;12.40;52.60;;;;;;5070948;28;19991;-29
2023/04/25 13:59:49;;;;;;;;;;;12.40;51.00;;;;;;5071685;28;19916;-31
2023/04/25 14:02:15;;;;;;;;;;;12.30;52.80;;;;;;5071512;28;20003;-31
2023/04/25 14:04:41;;;;;;;;;;;12.30;52.90;;;;;;5071456;28;20133;-32
2023/04/25 14:07:06;;;;;;;;;;;12.50;53.60;;;;;;5071610;28;19952;-30
2023/04/25 14:09:32;;;;;;;;;;;12.70;53.80;;;;;;5071447;28;19908;-29
2023/04/25 14:11:57;;;;;;;;;;;12.90;53.10;;;;;;5071666;28;20366;-29
2023/04/25 14:14:23;;;;;;;;;;;13.00;51.70;;;;;;5071713;28;19913;-30
2023/04/25 14:16:50;;;;;;;;;;;12.90;51.40;;;;;;5071546;28;20364;-32
2023/04/25 14:19:16;;;;;;;;;;;12.80;50.30;;;;;;5071551;28;20276;-29